sensor_id;sensor_type;location;lat;lon;timestamp;pressure;altitude;pressure_sealevel;temperature;humidity
13209;BME280;6669;42.678;23.332;2023-01-30T00:01:58;94813.50;;;-1.61;100.00
13209;BME280;6669;42.678;23.332;2023-01-30T00:04:26;94809.22;;;-1.60;100.00
13209;BME280;6669;42.678;23.332;2023-01-30T00:06:54;94804.78;;;-1.71;100.00
13209;BME280;6669;42.678;23.332;2023-01-30T00:09:22;94774.78;;;-1.81;100.00
13209;BME280;6669;42.678;23.332;2023-01-30T00:11:50;94790.66;;;-1.62;100.00
13209;BME280;6669;42.678;23.332;2023-01-30T00:14:17;94798.88;;;-1.72;100.00
13209;BME280;6669;42.678;23.332;2023-01-30T00:16:47;94796.50;;;-1.75;100.00
13209;BME280;6669;42.678;23.332;2023-01-30T00:19:15;94795.69;;;-1.75;100.00
13209;BME280;6669;42.678;23.332;2023-01-30T00:21:43;94806.06;;;-1.78;100.00
13209;BME280;6669;42.678;23.332;2023-01-30T00:24:11;94782.94;;;-1.90;100.00
13209;BME280;6669;42.678;23.332;2023-01-30T00:26:39;94794.84;;;-1.76;100.00
13209;BME280;6669;42.678;23.332;2023-01-30T00:29:07;94791.50;;;-1.76;100.00
13209;BME280;6669;42.678;23.332;2023-01-30T00:31:35;94789.41;;;-1.84;100.00
13209;BME280;6669;42.678;23.332;2023-01-30T00:34:05;94790.88;;;-1.80;100.00
13209;BME280;6669;42.678;23.332;2023-01-30T00:36:34;94790.75;;;-1.78;100.00
13209;BME280;6669;42.678;23.332;2023-01-30T00:39:02;94788.69;;;-1.72;100.00
13209;BME280;6669;42.678;23.332;2023-01-30T00:41:30;94782.28;;;-1.65;100.00
13209;BME280;6669;42.678;23.332;2023-01-30T00:44:11;94780.56;;;-1.64;100.00
13209;BME280;6669;42.678;23.332;2023-01-30T00:46:56;94780.31;;;-1.74;100.00
13209;BME280;6669;42.678;23.332;2023-01-30T00:49:36;94774.94;;;-1.84;100.00
13209;BME280;6669;42.678;23.332;2023-01-30T00:52:05;94763.56;;;-1.92;100.00
13209;BME280;6669;42.678;23.332;2023-01-30T00:54:33;94767.97;;;-1.94;100.00
13209;BME280;6669;42.678;23.332;2023-01-30T00:57:01;94769.50;;;-2.06;100.00
13209;BME280;6669;42.678;23.332;2023-01-30T00:59:29;94773.41;;;-2.01;100.00
13209;BME280;6669;42.678;23.332;2023-01-30T01:01:57;94773.50;;;-2.02;100.00
13209;BME280;6669;42.678;23.332;2023-01-30T01:04:25;94779.41;;;-2.02;100.00
13209;BME280;6669;42.678;23.332;2023-01-30T01:06:55;94769.50;;;-2.06;100.00
13209;BME280;6669;42.678;23.332;2023-01-30T01:09:23;94781.16;;;-2.02;100.00
13209;BME280;6669;42.678;23.332;2023-01-30T01:11:51;94777.88;;;-2.04;100.00
13209;BME280;6669;42.678;23.332;2023-01-30T01:14:19;94737.41;;;-2.23;100.00
13209;BME280;6669;42.678;23.332;2023-01-30T01:16:47;94775.41;;;-2.06;100.00
13209;BME280;6669;42.678;23.332;2023-01-30T01:19:14;94765.22;;;-2.06;100.00
13209;BME280;6669;42.678;23.332;2023-01-30T01:21:43;94751.13;;;-1.97;100.00
13209;BME280;6669;42.678;23.332;2023-01-30T01:24:13;94747.75;;;-1.98;100.00
13209;BME280;6669;42.678;23.332;2023-01-30T01:26:42;94754.22;;;-1.92;100.00
13209;BME280;6669;42.678;23.332;2023-01-30T01:29:11;94741.38;;;-1.90;100.00
13209;BME280;6669;42.678;23.332;2023-01-30T01:31:40;94748.22;;;-1.91;100.00
13209;BME280;6669;42.678;23.332;2023-01-30T01:34:08;94737.56;;;-1.98;100.00
13209;BME280;6669;42.678;23.332;2023-01-30T01:36:36;94742.13;;;-1.88;100.00
13209;BME280;6669;42.678;23.332;2023-01-30T01:39:21;94738.81;;;-1.90;100.00
13209;BME280;6669;42.678;23.332;2023-01-30T01:41:49;94746.56;;;-1.92;100.00
13209;BME280;6669;42.678;23.332;2023-01-30T01:44:16;94745.38;;;-1.86;100.00
13209;BME280;6669;42.678;23.332;2023-01-30T01:46:47;94746.81;;;-1.82;100.00
13209;BME280;6669;42.678;23.332;2023-01-30T01:49:21;94745.91;;;-1.81;100.00
13209;BME280;6669;42.678;23.332;2023-01-30T01:51:53;94755.28;;;-1.82;100.00
13209;BME280;6669;42.678;23.332;2023-01-30T01:54:30;94752.91;;;-1.85;100.00
13209;BME280;6669;42.678;23.332;2023-01-30T01:57:03;94738.03;;;-1.91;100.00
13209;BME280;6669;42.678;23.332;2023-01-30T01:59:34;94749.34;;;-1.82;100.00
13209;BME280;6669;42.678;23.332;2023-01-30T02:02:07;94751.63;;;-1.77;100.00
13209;BME280;6669;42.678;23.332;2023-01-30T02:04:39;94750.72;;;-1.76;100.00
13209;BME280;6669;42.678;23.332;2023-01-30T02:07:28;94747.91;;;-1.72;100.00
13209;BME280;6669;42.678;23.332;2023-01-30T02:10:01;94742.63;;;-1.69;100.00
13209;BME280;6669;42.678;23.332;2023-01-30T02:12:29;94737.50;;;-1.69;100.00
13209;BME280;6669;42.678;23.332;2023-01-30T02:14:59;94740.91;;;-1.83;100.00
13209;BME280;6669;42.678;23.332;2023-01-30T02:17:27;94736.38;;;-1.92;100.00
13209;BME280;6669;42.678;23.332;2023-01-30T02:20:02;94747.22;;;-1.88;100.00
13209;BME280;6669;42.678;23.332;2023-01-30T02:22:47;94749.75;;;-1.88;100.00
13209;BME280;6669;42.678;23.332;2023-01-30T02:25:52;94738.81;;;-1.90;100.00
13209;BME280;6669;42.678;23.332;2023-01-30T02:28:44;94727.94;;;-2.07;100.00
13209;BME280;6669;42.678;23.332;2023-01-30T02:31:27;94729.38;;;-2.03;100.00
13209;BME280;6669;42.678;23.332;2023-01-30T02:34:13;94752.84;;;-1.98;100.00
13209;BME280;6669;42.678;23.332;2023-01-30T02:36:53;94736.47;;;-1.93;100.00
13209;BME280;6669;42.678;23.332;2023-01-30T02:39:35;94748.22;;;-1.91;100.00
13209;BME280;6669;42.678;23.332;2023-01-30T02:42:10;94729.81;;;-1.96;100.00
13209;BME280;6669;42.678;23.332;2023-01-30T02:44:45;94736.75;;;-1.98;100.00
13209;BME280;6669;42.678;23.332;2023-01-30T02:47:23;94736.53;;;-1.95;100.00
13209;BME280;6669;42.678;23.332;2023-01-30T02:49:55;94739.63;;;-1.90;100.00
13209;BME280;6669;42.678;23.332;2023-01-30T02:52:26;94728.28;;;-1.99;100.00
13209;BME280;6669;42.678;23.332;2023-01-30T02:54:55;94731.09;;;-1.89;100.00
13209;BME280;6669;42.678;23.332;2023-01-30T02:57:24;94736.72;;;-1.84;100.00
13209;BME280;6669;42.678;23.332;2023-01-30T02:59:58;94735.66;;;-1.94;100.00
13209;BME280;6669;42.678;23.332;2023-01-30T03:02:48;94740.84;;;-1.95;100.00
13209;BME280;6669;42.678;23.332;2023-01-30T03:05:44;94717.94;;;-2.10;100.00
13209;BME280;6669;42.678;23.332;2023-01-30T03:08:21;94735.00;;;-1.98;100.00
13209;BME280;6669;42.678;23.332;2023-01-30T03:10:57;94735.53;;;-1.92;100.00
13209;BME280;6669;42.678;23.332;2023-01-30T03:13:35;94718.72;;;-1.95;100.00
13209;BME280;6669;42.678;23.332;2023-01-30T03:16:09;94721.91;;;-1.91;100.00
13209;BME280;6669;42.678;23.332;2023-01-30T03:18:41;94726.09;;;-1.90;100.00
13209;BME280;6669;42.678;23.332;2023-01-30T03:21:10;94710.44;;;-1.99;100.00
13209;BME280;6669;42.678;23.332;2023-01-30T03:23:38;94723.28;;;-2.00;100.00
13209;BME280;6669;42.678;23.332;2023-01-30T03:26:09;94711.44;;;-2.01;100.00
13209;BME280;6669;42.678;23.332;2023-01-30T03:28:40;94712.84;;;-2.10;100.00
13209;BME280;6669;42.678;23.332;2023-01-30T03:31:08;94706.22;;;-2.12;100.00
13209;BME280;6669;42.678;23.332;2023-01-30T03:33:37;94711.38;;;-2.14;100.00
13209;BME280;6669;42.678;23.332;2023-01-30T03:36:07;94727.75;;;-2.18;100.00
13209;BME280;6669;42.678;23.332;2023-01-30T03:38:35;94706.19;;;-2.27;100.00
13209;BME280;6669;42.678;23.332;2023-01-30T03:41:04;94703.50;;;-2.24;100.00
13209;BME280;6669;42.678;23.332;2023-01-30T03:43:32;94693.38;;;-2.25;100.00
13209;BME280;6669;42.678;23.332;2023-01-30T03:46:00;94692.84;;;-2.31;100.00
13209;BME280;6669;42.678;23.332;2023-01-30T03:48:28;94699.09;;;-2.22;100.00
13209;BME280;6669;42.678;23.332;2023-01-30T03:50:57;94700.56;;;-2.32;100.00
13209;BME280;6669;42.678;23.332;2023-01-30T03:53:26;94692.66;;;-2.27;100.00
13209;BME280;6669;42.678;23.332;2023-01-30T03:55:54;94698.09;;;-2.19;100.00
13209;BME280;6669;42.678;23.332;2023-01-30T03:58:22;94697.72;;;-2.13;100.00
13209;BME280;6669;42.678;23.332;2023-01-30T04:00:50;94693.38;;;-2.11;100.00
13209;BME280;6669;42.678;23.332;2023-01-30T04:03:20;94694.84;;;-2.21;100.00
13209;BME280;6669;42.678;23.332;2023-01-30T04:05:48;94691.38;;;-2.20;100.00
13209;BME280;6669;42.678;23.332;2023-01-30T04:08:16;94688.91;;;-2.22;100.00
13209;BME280;6669;42.678;23.332;2023-01-30T04:10:46;94697.94;;;-2.31;100.00
13209;BME280;6669;42.678;23.332;2023-01-30T04:13:13;94690.22;;;-2.29;100.00
13209;BME280;6669;42.678;23.332;2023-01-30T04:15:42;94685.03;;;-2.27;100.00
13209;BME280;6669;42.678;23.332;2023-01-30T04:18:10;94689.56;;;-2.18;100.00
13209;BME280;6669;42.678;23.332;2023-01-30T04:20:38;94689.75;;;-2.21;100.00
13209;BME280;6669;42.678;23.332;2023-01-30T04:23:06;94687.28;;;-2.23;100.00
13209;BME280;6669;42.678;23.332;2023-01-30T04:25:34;94688.00;;;-2.21;100.00
13209;BME280;6669;42.678;23.332;2023-01-30T04:28:04;94684.66;;;-2.21;100.00
13209;BME280;6669;42.678;23.332;2023-01-30T04:30:32;94676.47;;;-2.26;100.00
13209;BME280;6669;42.678;23.332;2023-01-30T04:33:00;94687.56;;;-2.27;100.00
13209;BME280;6669;42.678;23.332;2023-01-30T04:35:28;94692.38;;;-2.23;100.00
13209;BME280;6669;42.678;23.332;2023-01-30T04:37:56;94668.75;;;-2.25;100.00
13209;BME280;6669;42.678;23.332;2023-01-30T04:40:24;94686.38;;;-2.22;100.00
13209;BME280;6669;42.678;23.332;2023-01-30T04:42:51;94681.75;;;-2.30;100.00
13209;BME280;6669;42.678;23.332;2023-01-30T04:45:21;94685.19;;;-2.31;100.00
13209;BME280;6669;42.678;23.332;2023-01-30T04:47:49;94679.19;;;-2.30;100.00
13209;BME280;6669;42.678;23.332;2023-01-30T04:50:17;94672.75;;;-2.35;100.00
13209;BME280;6669;42.678;23.332;2023-01-30T04:52:45;94675.22;;;-2.34;100.00
13209;BME280;6669;42.678;23.332;2023-01-30T04:55:13;94664.13;;;-2.33;100.00
13209;BME280;6669;42.678;23.332;2023-01-30T04:57:42;94655.56;;;-2.46;100.00
13209;BME280;6669;42.678;23.332;2023-01-30T05:00:10;94662.84;;;-2.40;100.00
13209;BME280;6669;42.678;23.332;2023-01-30T05:02:40;94646.59;;;-2.52;100.00
13209;BME280;6669;42.678;23.332;2023-01-30T05:05:11;94664.47;;;-2.39;100.00
13209;BME280;6669;42.678;23.332;2023-01-30T05:07:39;94664.84;;;-2.45;100.00
13209;BME280;6669;42.678;23.332;2023-01-30T05:10:08;94665.13;;;-2.35;100.00
13209;BME280;6669;42.678;23.332;2023-01-30T05:12:36;94656.56;;;-2.34;100.00
13209;BME280;6669;42.678;23.332;2023-01-30T05:15:05;94657.03;;;-2.27;100.00
13209;BME280;6669;42.678;23.332;2023-01-30T05:17:33;94656.47;;;-2.33;100.00
13209;BME280;6669;42.678;23.332;2023-01-30T05:20:03;94658.03;;;-2.30;100.00
13209;BME280;6669;42.678;23.332;2023-01-30T05:22:32;94662.22;;;-2.29;100.00
13209;BME280;6669;42.678;23.332;2023-01-30T05:25:00;94661.09;;;-2.39;100.00
13209;BME280;6669;42.678;23.332;2023-01-30T05:27:28;94661.94;;;-2.39;100.00
13209;BME280;6669;42.678;23.332;2023-01-30T05:29:56;94664.59;;;-2.40;100.00
13209;BME280;6669;42.678;23.332;2023-01-30T05:32:24;94670.00;;;-2.32;100.00
13209;BME280;6669;42.678;23.332;2023-01-30T05:34:52;94664.47;;;-2.39;100.00
13209;BME280;6669;42.678;23.332;2023-01-30T05:37:22;94669.38;;;-2.36;100.00
13209;BME280;6669;42.678;23.332;2023-01-30T05:39:50;94666.19;;;-2.39;100.00
13209;BME280;6669;42.678;23.332;2023-01-30T05:42:18;94670.00;;;-2.32;100.00
13209;BME280;6669;42.678;23.332;2023-01-30T05:44:46;94671.38;;;-2.26;100.00
13209;BME280;6669;42.678;23.332;2023-01-30T05:47:14;94667.31;;;-2.29;100.00
13209;BME280;6669;42.678;23.332;2023-01-30T05:49:42;94669.13;;;-2.31;100.00
13209;BME280;6669;42.678;23.332;2023-01-30T05:52:10;94675.94;;;-2.32;100.00
13209;BME280;6669;42.678;23.332;2023-01-30T05:54:39;94673.56;;;-2.35;100.00
13209;BME280;6669;42.678;23.332;2023-01-30T05:57:07;94669.84;;;-2.43;100.00
13209;BME280;6669;42.678;23.332;2023-01-30T05:59:35;94680.94;;;-2.44;100.00
13209;BME280;6669;42.678;23.332;2023-01-30T06:02:03;94682.66;;;-2.45;100.00
13209;BME280;6669;42.678;23.332;2023-01-30T06:04:31;94681.03;;;-2.46;100.00
13209;BME280;6669;42.678;23.332;2023-01-30T06:06:59;94686.47;;;-2.52;100.00
13209;BME280;6669;42.678;23.332;2023-01-30T06:09:27;94675.38;;;-2.51;100.00
13209;BME280;6669;42.678;23.332;2023-01-30T06:11:56;94674.69;;;-2.53;100.00
13209;BME280;6669;42.678;23.332;2023-01-30T06:14:24;94677.66;;;-2.47;100.00
13209;BME280;6669;42.678;23.332;2023-01-30T06:16:52;94675.03;;;-2.45;100.00
13209;BME280;6669;42.678;23.332;2023-01-30T06:19:20;94678.13;;;-2.40;100.00
13209;BME280;6669;42.678;23.332;2023-01-30T06:21:48;94665.47;;;-2.41;100.00
13209;BME280;6669;42.678;23.332;2023-01-30T06:24:16;94663.91;;;-2.30;100.00
13209;BME280;6669;42.678;23.332;2023-01-30T06:26:44;94659.13;;;-2.34;100.00
13209;BME280;6669;42.678;23.332;2023-01-30T06:29:14;94670.84;;;-2.32;100.00
13209;BME280;6669;42.678;23.332;2023-01-30T06:31:42;94652.03;;;-2.43;100.00
13209;BME280;6669;42.678;23.332;2023-01-30T06:34:13;94664.03;;;-2.45;100.00
13209;BME280;6669;42.678;23.332;2023-01-30T06:36:41;94657.84;;;-2.56;100.00
13209;BME280;6669;42.678;23.332;2023-01-30T06:39:09;94669.94;;;-2.45;100.00
13209;BME280;6669;42.678;23.332;2023-01-30T06:41:37;94663.09;;;-2.44;100.00
13209;BME280;6669;42.678;23.332;2023-01-30T06:44:05;94661.47;;;-2.60;100.00
13209;BME280;6669;42.678;23.332;2023-01-30T06:46:34;94666.66;;;-2.61;100.00
13209;BME280;6669;42.678;23.332;2023-01-30T06:49:02;94670.31;;;-2.66;100.00
13209;BME280;6669;42.678;23.332;2023-01-30T06:51:30;94671.56;;;-2.73;100.00
13209;BME280;6669;42.678;23.332;2023-01-30T06:53:58;94663.03;;;-2.57;100.00
13209;BME280;6669;42.678;23.332;2023-01-30T06:56:26;94673.41;;;-2.60;100.00
13209;BME280;6669;42.678;23.332;2023-01-30T06:58:54;94673.22;;;-2.57;100.00
13209;BME280;6669;42.678;23.332;2023-01-30T07:01:22;94678.59;;;-2.62;100.00
13209;BME280;6669;42.678;23.332;2023-01-30T07:03:53;94678.28;;;-2.57;100.00
13209;BME280;6669;42.678;23.332;2023-01-30T07:06:20;94677.13;;;-2.52;100.00
13209;BME280;6669;42.678;23.332;2023-01-30T07:08:48;94671.00;;;-2.64;100.00
13209;BME280;6669;42.678;23.332;2023-01-30T07:11:17;94689.75;;;-2.50;100.00
13209;BME280;6669;42.678;23.332;2023-01-30T07:13:45;94683.88;;;-2.51;100.00
13209;BME280;6669;42.678;23.332;2023-01-30T07:16:13;94689.94;;;-2.53;100.00
13209;BME280;6669;42.678;23.332;2023-01-30T07:18:41;94693.56;;;-2.57;100.00
13209;BME280;6669;42.678;23.332;2023-01-30T07:21:10;94690.13;;;-2.56;100.00
13209;BME280;6669;42.678;23.332;2023-01-30T07:23:38;94688.38;;;-2.56;100.00
13209;BME280;6669;42.678;23.332;2023-01-30T07:26:06;94699.38;;;-2.55;100.00
13209;BME280;6669;42.678;23.332;2023-01-30T07:28:34;94693.66;;;-2.59;100.00
13209;BME280;6669;42.678;23.332;2023-01-30T07:31:02;94692.66;;;-2.56;100.00
13209;BME280;6669;42.678;23.332;2023-01-30T07:33:30;94679.59;;;-2.65;100.00
13209;BME280;6669;42.678;23.332;2023-01-30T07:35:58;94694.41;;;-2.57;100.00
13209;BME280;6669;42.678;23.332;2023-01-30T07:38:28;94707.38;;;-2.47;100.00
13209;BME280;6669;42.678;23.332;2023-01-30T07:40:56;94705.47;;;-2.43;100.00
13209;BME280;6669;42.678;23.332;2023-01-30T07:43:24;94710.41;;;-2.40;100.00
13209;BME280;6669;42.678;23.332;2023-01-30T07:45:52;94705.91;;;-2.37;100.00
13209;BME280;6669;42.678;23.332;2023-01-30T07:48:20;94686.13;;;-2.32;100.00
13209;BME280;6669;42.678;23.332;2023-01-30T07:50:48;94704.84;;;-2.18;100.00
13209;BME280;6669;42.678;23.332;2023-01-30T07:53:17;94702.56;;;-2.23;100.00
13209;BME280;6669;42.678;23.332;2023-01-30T07:55:46;94686.19;;;-2.19;100.00
13209;BME280;6669;42.678;23.332;2023-01-30T07:58:14;94693.72;;;-2.03;100.00
13209;BME280;6669;42.678;23.332;2023-01-30T08:00:43;94684.38;;;-2.02;100.00
13209;BME280;6669;42.678;23.332;2023-01-30T08:03:12;94691.22;;;-1.90;100.00
13209;BME280;6669;42.678;23.332;2023-01-30T08:05:41;94673.34;;;-2.03;100.00
13209;BME280;6669;42.678;23.332;2023-01-30T08:08:12;94686.81;;;-2.01;100.00
13209;BME280;6669;42.678;23.332;2023-01-30T08:10:40;94686.06;;;-2.03;100.00
13209;BME280;6669;42.678;23.332;2023-01-30T08:13:10;94683.81;;;-2.07;100.00
13209;BME280;6669;42.678;23.332;2023-01-30T08:15:38;94682.09;;;-2.07;100.00
13209;BME280;6669;42.678;23.332;2023-01-30T08:18:06;94682.41;;;-1.99;100.00
13209;BME280;6669;42.678;23.332;2023-01-30T08:20:35;94682.34;;;-1.97;100.00
13209;BME280;6669;42.678;23.332;2023-01-30T08:23:03;94679.84;;;-1.84;100.00
13209;BME280;6669;42.678;23.332;2023-01-30T08:25:31;94669.88;;;-2.02;100.00
13209;BME280;6669;42.678;23.332;2023-01-30T08:28:01;94669.06;;;-2.02;100.00
13209;BME280;6669;42.678;23.332;2023-01-30T08:30:30;94678.69;;;-1.93;100.00
13209;BME280;6669;42.678;23.332;2023-01-30T08:32:58;94664.84;;;-1.89;100.00
13209;BME280;6669;42.678;23.332;2023-01-30T08:35:26;94646.69;;;-1.97;100.00
13209;BME280;6669;42.678;23.332;2023-01-30T08:37:54;94661.97;;;-1.70;100.00
13209;BME280;6669;42.678;23.332;2023-01-30T08:40:22;94656.44;;;-1.76;100.00
13209;BME280;6669;42.678;23.332;2023-01-30T08:42:50;94667.00;;;-1.83;100.00
13209;BME280;6669;42.678;23.332;2023-01-30T08:45:18;94670.28;;;-1.81;100.00
13209;BME280;6669;42.678;23.332;2023-01-30T08:47:49;94667.00;;;-1.83;100.00
13209;BME280;6669;42.678;23.332;2023-01-30T08:50:17;94653.94;;;-1.91;100.00
13209;BME280;6669;42.678;23.332;2023-01-30T08:52:45;94660.19;;;-1.82;100.00
13209;BME280;6669;42.678;23.332;2023-01-30T08:55:14;94659.47;;;-1.84;100.00
13209;BME280;6669;42.678;23.332;2023-01-30T08:57:42;94657.34;;;-1.77;100.00
13209;BME280;6669;42.678;23.332;2023-01-30T09:00:11;94647.78;;;-1.74;100.00
13209;BME280;6669;42.678;23.332;2023-01-30T09:02:39;94649.03;;;-1.67;100.00
13209;BME280;6669;42.678;23.332;2023-01-30T09:05:09;94634.97;;;-1.59;100.00
13209;BME280;6669;42.678;23.332;2023-01-30T09:07:37;94633.25;;;-1.59;100.00
13209;BME280;6669;42.678;23.332;2023-01-30T09:10:06;94641.53;;;-1.55;100.00
13209;BME280;6669;42.678;23.332;2023-01-30T09:12:34;94638.16;;;-1.56;100.00
13209;BME280;6669;42.678;23.332;2023-01-30T09:15:02;94640.91;;;-1.59;100.00
13209;BME280;6669;42.678;23.332;2023-01-30T09:17:30;94640.47;;;-1.66;100.00
13209;BME280;6669;42.678;23.332;2023-01-30T09:19:58;94646.97;;;-1.74;100.00
13209;BME280;6669;42.678;23.332;2023-01-30T09:22:28;94634.53;;;-1.79;100.00
13209;BME280;6669;42.678;23.332;2023-01-30T09:24:56;94636.44;;;-1.83;100.00
13209;BME280;6669;42.678;23.332;2023-01-30T09:27:24;94635.09;;;-1.88;100.00
13209;BME280;6669;42.678;23.332;2023-01-30T09:29:52;94629.19;;;-1.89;100.00
13209;BME280;6669;42.678;23.332;2023-01-30T09:32:20;94637.78;;;-1.77;100.00
13209;BME280;6669;42.678;23.332;2023-01-30T09:34:48;94634.84;;;-1.71;100.00
13209;BME280;6669;42.678;23.332;2023-01-30T09:37:16;94626.63;;;-1.61;100.00
13209;BME280;6669;42.678;23.332;2023-01-30T09:39:46;94626.81;;;-1.65;100.00
13209;BME280;6669;42.678;23.332;2023-01-30T09:42:31;94628.94;;;-1.71;100.00
13209;BME280;6669;42.678;23.332;2023-01-30T09:45:15;94621.53;;;-1.89;100.00
13209;BME280;6669;42.678;23.332;2023-01-30T09:47:54;94625.38;;;-1.96;100.00
13209;BME280;6669;42.678;23.332;2023-01-30T09:50:50;94623.91;;;-1.86;100.00
13209;BME280;6669;42.678;23.332;2023-01-30T09:53:28;94610.84;;;-1.81;100.00
13209;BME280;6669;42.678;23.332;2023-01-30T09:55:59;94617.34;;;-1.90;100.00
13209;BME280;6669;42.678;23.332;2023-01-30T09:58:41;94605.59;;;-1.78;100.00
13209;BME280;6669;42.678;23.332;2023-01-30T10:01:17;94585.16;;;-1.91;100.00
13209;BME280;6669;42.678;23.332;2023-01-30T10:03:57;94591.00;;;-1.76;100.00
13209;BME280;6669;42.678;23.332;2023-01-30T10:06:32;94595.00;;;-1.72;100.00
13209;BME280;6669;42.678;23.332;2023-01-30T10:09:10;94595.53;;;-1.67;100.00
13209;BME280;6669;42.678;23.332;2023-01-30T10:11:55;94579.16;;;-1.77;100.00
13209;BME280;6669;42.678;23.332;2023-01-30T10:17:31;94576.81;;;-1.80;100.00
13209;BME280;6669;42.678;23.332;2023-01-30T10:20:26;94576.06;;;-1.95;100.00
13209;BME280;6669;42.678;23.332;2023-01-30T10:23:09;94556.78;;;-1.99;100.00
13209;BME280;6669;42.678;23.332;2023-01-30T10:25:43;94560.25;;;-2.00;100.00
13209;BME280;6669;42.678;23.332;2023-01-30T10:28:19;94564.44;;;-1.99;100.00
13209;BME280;6669;42.678;23.332;2023-01-30T10:30:52;94571.41;;;-1.88;100.00
13209;BME280;6669;42.678;23.332;2023-01-30T10:33:26;94550.50;;;-1.93;100.00
13209;BME280;6669;42.678;23.332;2023-01-30T10:36:00;94542.41;;;-2.00;100.00
13209;BME280;6669;42.678;23.332;2023-01-30T10:38:36;94536.63;;;-2.02;100.00
13209;BME280;6669;42.678;23.332;2023-01-30T10:41:14;94530.00;;;-2.05;100.00
13209;BME280;6669;42.678;23.332;2023-01-30T10:43:53;94525.09;;;-2.08;100.00
13209;BME280;6669;42.678;23.332;2023-01-30T10:46:34;94527.25;;;-2.02;100.00
13209;BME280;6669;42.678;23.332;2023-01-30T10:49:10;94524.16;;;-2.07;100.00
13209;BME280;6669;42.678;23.332;2023-01-30T10:51:47;94512.69;;;-2.00;100.00
13209;BME280;6669;42.678;23.332;2023-01-30T10:54:24;94502.31;;;-1.71;100.00
13209;BME280;6669;42.678;23.332;2023-01-30T10:56:59;94498.47;;;-1.63;100.00
13209;BME280;6669;42.678;23.332;2023-01-30T10:59:43;94494.91;;;-1.61;100.00
13209;BME280;6669;42.678;23.332;2023-01-30T11:02:22;94480.50;;;-1.88;100.00
13209;BME280;6669;42.678;23.332;2023-01-30T11:04:57;94477.78;;;-1.72;100.00
13209;BME280;6669;42.678;23.332;2023-01-30T11:07:29;94466.34;;;-1.66;100.00
13209;BME280;6669;42.678;23.332;2023-01-30T11:09:58;94460.22;;;-1.51;100.00
13209;BME280;6669;42.678;23.332;2023-01-30T11:12:26;94455.03;;;-1.49;100.00
13209;BME280;6669;42.678;23.332;2023-01-30T11:14:58;94461.34;;;-1.42;100.00
13209;BME280;6669;42.678;23.332;2023-01-30T11:17:32;94454.22;;;-1.37;100.00
13209;BME280;6669;42.678;23.332;2023-01-30T11:20:06;94463.91;;;-1.42;100.00
13209;BME280;6669;42.678;23.332;2023-01-30T11:22:44;94458.41;;;-1.61;100.00
13209;BME280;6669;42.678;23.332;2023-01-30T11:25:14;94439.63;;;-1.60;100.00
13209;BME280;6669;42.678;23.332;2023-01-30T11:27:51;94448.22;;;-1.61;100.00
13209;BME280;6669;42.678;23.332;2023-01-30T11:30:23;94431.09;;;-1.72;100.00
13209;BME280;6669;42.678;23.332;2023-01-30T11:33:05;94412.94;;;-1.68;100.00
13209;BME280;6669;42.678;23.332;2023-01-30T11:35:41;94423.00;;;-1.53;100.00
13209;BME280;6669;42.678;23.332;2023-01-30T11:38:20;94419.44;;;-1.51;100.00
13209;BME280;6669;42.678;23.332;2023-01-30T11:40:48;94414.75;;;-1.31;100.00
13209;BME280;6669;42.678;23.332;2023-01-30T11:43:16;94414.72;;;-1.18;100.00
13209;BME280;6669;42.678;23.332;2023-01-30T11:45:48;94404.22;;;-1.26;100.00
13209;BME280;6669;42.678;23.332;2023-01-30T11:48:18;94392.25;;;-1.13;100.00
13209;BME280;6669;42.678;23.332;2023-01-30T11:51:08;94386.88;;;-0.97;100.00
13209;BME280;6669;42.678;23.332;2023-01-30T11:53:39;94384.25;;;-0.95;100.00
13209;BME280;6669;42.678;23.332;2023-01-30T11:56:14;94371.44;;;-0.83;100.00
13209;BME280;6669;42.678;23.332;2023-01-30T11:58:54;94373.38;;;-0.86;100.00
13209;BME280;6669;42.678;23.332;2023-01-30T12:01:28;94370.16;;;-0.77;100.00
13209;BME280;6669;42.678;23.332;2023-01-30T12:03:57;94356.25;;;-0.97;100.00
13209;BME280;6669;42.678;23.332;2023-01-30T12:06:29;94356.88;;;-0.93;100.00
13209;BME280;6669;42.678;23.332;2023-01-30T12:08:58;94356.44;;;-0.87;100.00
13209;BME280;6669;42.678;23.332;2023-01-30T12:11:30;94350.53;;;-0.88;100.00
13209;BME280;6669;42.678;23.332;2023-01-30T12:14:17;94338.16;;;-0.81;100.00
13209;BME280;6669;42.678;23.332;2023-01-30T12:16:52;94334.88;;;-0.83;100.00
13209;BME280;6669;42.678;23.332;2023-01-30T12:19:32;94331.63;;;-0.61;100.00
13209;BME280;6669;42.678;23.332;2023-01-30T12:22:11;94332.53;;;-0.62;100.00
13209;BME280;6669;42.678;23.332;2023-01-30T12:24:47;94320.06;;;-0.31;100.00
13209;BME280;6669;42.678;23.332;2023-01-30T12:27:21;94319.44;;;-0.46;100.00
13209;BME280;6669;42.678;23.332;2023-01-30T12:29:58;94323.28;;;-0.52;100.00
13209;BME280;6669;42.678;23.332;2023-01-30T12:32:33;94300.38;;;-0.64;100.00
13209;BME280;6669;42.678;23.332;2023-01-30T12:35:13;94312.75;;;-0.36;100.00
13209;BME280;6669;42.678;23.332;2023-01-30T12:37:51;94310.91;;;-0.22;100.00
13209;BME280;6669;42.678;23.332;2023-01-30T12:40:32;94307.47;;;-0.10;100.00
13209;BME280;6669;42.678;23.332;2023-01-30T12:43:31;94303.75;;;0.06;100.00
13209;BME280;6669;42.678;23.332;2023-01-30T12:46:13;94304.34;;;0.32;100.00
13209;BME280;6669;42.678;23.332;2023-01-30T12:48:54;94300.97;;;-0.14;100.00
13209;BME280;6669;42.678;23.332;2023-01-30T12:51:49;94297.25;;;0.02;100.00
13209;BME280;6669;42.678;23.332;2023-01-30T12:54:31;94294.91;;;-0.02;100.00
13209;BME280;6669;42.678;23.332;2023-01-30T12:57:12;94282.38;;;-0.16;100.00
13209;BME280;6669;42.678;23.332;2023-01-30T12:59:50;94280.84;;;-0.19;100.00
13209;BME280;6669;42.678;23.332;2023-01-30T13:02:42;94284.31;;;-0.20;100.00
13209;BME280;6669;42.678;23.332;2023-01-30T13:05:22;94266.56;;;-0.21;100.00
13209;BME280;6669;42.678;23.332;2023-01-30T13:08:10;94280.28;;;-0.11;100.00
13209;BME280;6669;42.678;23.332;2023-01-30T13:10:47;94283.06;;;-0.03;100.00
13209;BME280;6669;42.678;23.332;2023-01-30T13:13:20;94273.22;;;-0.66;100.00
13209;BME280;6669;42.678;23.332;2023-01-30T13:15:56;94282.75;;;-0.56;100.00
13209;BME280;6669;42.678;23.332;2023-01-30T13:18:31;94277.53;;;-0.66;100.00